Latest Weather Observations for Rottnest Island

IDW60901

Issued at 5:31 pm WST Saturday 2 July 2016 (issued every 10 minutes, with the page automatically refreshed every 10 minutes)

About weather observations | Map of Perth area stations | Latest observations for Perth area | Other Formats
Station Details ID: 009193 Name: ROTTNEST ISLAND Lat: -32.01 Lon: 115.50 Height: 43.1 m
Data from the previous 72 hours. | See also: Recent months at Rottnest Island
Date/Time
WST
Temp
°C
App
Temp
°C
Dew
Point
°C
Rel
Hum
%
Delta-T
°C
Wind Press
QNH
hPa
Press
MSL
hPa
Rain since
9am
mm
Dir  Spd
km/h
Gust
km/h
Spd
kts
Gust
kts
02/05:30pm 17.3 14.1 10.0 62 3.8 S 17 20 9 11 1021.7 1021.7 0.0
02/05:00pm 17.2 13.4 8.9 58 4.3 S 19 22 10 12 1021.2 1021.2 0.0
02/04:30pm 17.1 13.8 9.5 61 4.0 S 17 20 9 11 1021.1 1021.1 0.0
02/04:00pm 17.0 13.3 9.4 61 4.0 S 19 22 10 12 1021.1 1021.1 0.0
02/03:30pm 17.0 13.2 9.9 63 3.7 SSE 20 26 11 14 1020.9 1020.9 0.0
02/03:00pm 16.9 12.8 10.1 64 3.6 S 22 26 12 14 1021.1 1021.1 0.0
02/02:30pm 17.0 12.8 9.9 63 3.7 S 22 28 12 15 1021.2 1021.2 0.0
02/02:00pm 17.0 13.0 9.2 60 4.0 S 20 26 11 14 1021.4 1021.4 0.0
02/01:30pm 17.1 13.1 9.0 59 4.2 S 20 26 11 14 1021.7 1021.7 0.0
02/01:00pm 17.5 13.9 9.9 61 4.0 S 19 28 10 15 1022.2 1022.2 0.0
02/12:30pm 18.2 15.5 9.0 55 4.8 NNE 13 20 7 11 1022.7 1022.7 0.0
02/12:00pm 16.8 13.1 8.0 56 4.4 NE 17 22 9 12 1022.9 1022.9 0.0
02/11:30am 16.8 12.7 8.0 56 4.5 NE 19 24 10 13 1023.2 1023.2 0.0
02/11:00am 16.2 11.9 7.7 57 4.2 NNE 20 28 11 15 1023.5 1023.5 0.0
02/10:30am 15.6 11.2 7.6 59 4.0 NE 20 26 11 14 1024.0 1024.0 0.0
02/10:00am 15.0 11.2 7.5 61 3.7 NE 17 24 9 13 1024.2 1024.2 0.0
02/09:30am 14.4 11.1 7.9 65 3.2 ENE 15 20 8 11 1024.3 1024.3 0.0
02/09:00am 14.1 10.3 7.4 64 3.3 E 17 22 9 12 1024.2 1024.2 0.0
02/08:30am 13.6 10.3 8.2 70 2.7 ESE 15 19 8 10 1024.2 1024.2 0.0
02/08:00am 12.6 9.7 8.1 74 2.2 SE 13 20 7 11 1024.1 1024.1 0.0
02/07:30am 12.6 9.0 8.5 76 2.0 SE 17 20 9 11 1024.0 1024.0 0.0
02/07:00am 13.0 9.1 8.5 74 2.2 SE 19 24 10 13 1023.9 1023.9 0.0
02/06:30am 12.8 9.4 7.7 71 2.5 ESE 15 19 8 10 1023.9 1023.9 0.0
02/06:00am 13.0 8.9 7.9 71 2.5 SE 19 20 10 11 1023.6 1023.6 0.0
02/05:30am 13.2 9.2 8.3 72 2.4 SE 19 22 10 12 1023.7 1023.7 0.0
02/05:00am 12.8 8.8 8.1 73 2.3 SE 19 20 10 11 1023.7 1023.7 0.0
02/04:30am 12.5 9.1 7.6 72 2.4 SE 15 19 8 10 1023.8 1023.8 0.0
02/04:00am 12.7 8.9 7.4 70 2.6 SE 17 19 9 10 1024.1 1024.1 0.0
02/03:30am 12.9 9.8 7.1 68 2.8 ESE 13 17 7 9 1024.4 1024.4 0.0
02/03:00am 12.8 9.3 7.3 69 2.7 SE 15 19 8 10 1024.6 1024.6 0.0
02/02:30am 13.2 9.7 7.4 68 2.8 ESE 15 17 8 9 1024.7 1024.7 0.0
02/02:00am 13.1 10.1 7.5 69 2.7 E 13 17 7 9 1024.7 1024.7 0.0
02/01:30am 13.2 10.2 7.6 69 2.7 E 13 17 7 9 1024.8 1024.8 0.0
02/01:00am 13.1 10.1 7.5 69 2.7 ESE 13 17 7 9 1024.8 1024.8 0.0
02/12:30am 12.9 9.5 7.8 71 2.5 ESE 15 17 8 9 1024.9 1024.9 0.0
02/12:00am 12.7 9.6 7.4 70 2.6 ESE 13 15 7 8 1025.3 1025.3 0.0
 
Date/Time
WST
Temp
°C
App
Temp
°C
Dew
Point
°C
Rel
Hum
%
Delta-T
°C
Wind Press
QNH
hPa
Press
MSL
hPa
Rain since
9am
mm
Dir  Spd
km/h
Gust
km/h
Spd
kts
Gust
kts
01/11:30pm 13.1 10.0 7.1 67 2.9 ESE 13 19 7 10 1025.4 1025.4 0.0
01/11:00pm 13.3 9.7 6.9 65 3.1 E 15 19 8 10 1025.7 1025.7 0.0
01/10:30pm 13.6 10.0 6.9 64 3.2 E 15 19 8 10 1025.9 1025.9 0.0
01/10:00pm 13.6 10.0 6.9 64 3.2 E 15 19 8 10 1025.9 1025.9 0.0
01/09:30pm 13.8 9.9 7.3 65 3.2 E 17 20 9 11 1026.0 1026.0 0.0
01/09:00pm 13.9 10.0 7.0 63 3.3 E 17 22 9 12 1026.0 1026.0 0.0
01/08:30pm 14.4 10.3 6.3 58 3.9 E 17 20 9 11 1026.0 1026.0 0.0
01/08:00pm 14.8 11.0 7.4 61 3.6 SE 17 22 9 12 1026.0 1026.0 0.0
01/07:30pm 15.1 11.1 6.7 57 4.1 SE 17 20 9 11 1025.7 1025.7 0.0
01/07:00pm 15.4 11.5 5.3 51 4.8 SE 15 17 8 9 1025.6 1025.6 0.0
01/06:30pm 15.5 11.6 5.4 51 4.8 SE 15 19 8 10 1025.2 1025.2 0.0
01/06:00pm 15.3 11.6 6.1 54 4.4 SE 15 17 8 9 1024.8 1024.8 0.0
01/05:30pm 15.8 11.0 5.7 51 4.9 SE 20 24 11 13 1024.5 1024.5 0.0
01/05:00pm 15.9 11.7 5.5 50 5.0 SE 17 20 9 11 1024.6 1024.6 0.0
01/04:30pm 15.9 12.0 5.2 49 5.1 SE 15 19 8 10 1024.9 1024.9 0.0
01/04:00pm 16.1 12.5 4.8 47 5.3 SE 13 17 7 9 1025.0 1025.0 0.0
01/03:30pm 16.2 12.6 4.9 47 5.4 SE 13 19 7 10 1025.1 1025.1 0.0
01/03:00pm 16.6 12.9 4.6 45 5.6 SE 13 20 7 11 1025.2 1025.2 0.0
01/02:30pm 16.3 11.9 5.0 47 5.4 SE 17 22 9 12 1025.2 1025.2 0.0
01/02:00pm 16.0 12.0 4.7 47 5.3 SE 15 24 8 13 1025.2 1025.2 0.0
01/01:30pm 16.2 12.5 4.6 46 5.5 ESE 13 19 7 10 1025.6 1025.6 0.0
01/01:00pm 16.3 12.4 5.3 48 5.2 E 15 22 8 12 1026.1 1026.1 0.0
01/12:30pm 16.0 11.7 5.3 49 5.1 ENE 17 22 9 12 1026.5 1026.5 0.0
01/12:00pm 15.8 11.2 5.4 50 4.9 ENE 19 24 10 13 1027.1 1027.1 0.0
01/11:30am 15.9 11.4 6.1 52 4.8 ENE 19 24 10 13 1027.5 1027.5 0.0
01/11:00am 15.3 10.2 5.8 53 4.5 NE 22 28 12 15 1027.8 1027.8 0.0
01/10:30am 14.8 9.5 6.9 59 3.9 NE 24 30 13 16 1028.1 1028.1 0.0
01/10:00am 14.5 10.1 7.3 62 3.5 NE 20 28 11 15 1028.2 1028.2 0.0
01/09:30am 14.2 9.9 7.7 65 3.2 NE 20 26 11 14 1028.3 1028.3 0.0
01/09:00am 13.8 9.7 8.0 68 2.9 NE 19 26 10 14 1028.1 1028.1 0.0
01/08:30am 13.5 9.9 8.4 71 2.5 NE 17 24 9 13 1028.1 1028.1 0.0
01/08:00am 12.6 9.2 7.5 71 2.5 NE 15 20 8 11 1027.8 1027.8 0.0
01/07:30am 12.5 8.7 7.4 71 2.5 NE 17 20 9 11 1027.5 1027.5 0.0
01/07:00am 12.4 8.9 7.1 70 2.5 NE 15 19 8 10 1027.3 1027.3 0.0
01/06:30am 12.4 8.5 7.3 71 2.5 NE 17 19 9 10 1027.1 1027.1 0.0
01/06:00am 12.7 8.9 7.4 70 2.6 NE 17 19 9 10 1026.8 1026.8 0.0
01/05:30am 13.1 10.1 7.8 70 2.6 NE 13 17 7 9 1026.8 1026.8 0.0
01/05:00am 13.1 9.8 8.0 71 2.5 NE 15 17 8 9 1026.7 1026.7 0.0
01/04:30am 13.1 9.7 7.8 70 2.6 NE 15 17 8 9 1026.7 1026.7 0.0
01/04:00am 13.2 9.9 8.1 71 2.5 NE 15 19 8 10 1026.7 1026.7 0.0
01/03:30am 13.2 10.2 7.6 69 2.7 NE 13 17 7 9 1026.9 1026.9 0.0
01/03:00am 13.4 9.6 7.4 67 2.9 ENE 17 17 9 9 1026.9 1026.9 0.0
01/02:30am 13.1 9.6 7.3 68 2.8 ENE 15 17 8 9 1026.8 1026.8 0.0
01/02:00am 13.4 9.9 7.4 67 2.9 ENE 15 17 8 9 1026.8 1026.8 0.0
01/01:30am 13.0 9.9 7.2 68 2.8 ENE 13 15 7 8 1026.8 1026.8 0.0
01/01:00am 13.1 9.7 7.8 70 2.6 ENE 15 17 8 9 1027.0 1027.0 0.0
01/12:30am 13.2 9.9 7.9 70 2.6 ENE 15 17 8 9 1027.0 1027.0 0.0
01/12:00am 13.8 10.5 6.2 60 3.6 E 13 13 7 7 1027.1 1027.1 0.0
 
Date/Time
WST
Temp
°C
App
Temp
°C
Dew
Point
°C
Rel
Hum
%
Delta-T
°C
Wind Press
QNH
hPa
Press
MSL
hPa
Rain since
9am
mm
Dir  Spd
km/h
Gust
km/h
Spd
kts
Gust
kts
30/11:30pm 13.4 10.1 6.3 62 3.4 E 13 15 7 8 1027.0 1027.0 0.0
30/11:00pm 13.9 10.6 6.5 61 3.5 E 13 15 7 8 1027.3 1027.3 0.0
30/10:30pm 14.2 11.3 6.3 59 3.8 E 11 11 6 6 1027.5 1027.5 0.0
30/10:00pm 13.9 11.0 6.5 61 3.5 E 11 13 6 7 1027.5 1027.5 0.0
30/09:30pm 13.7 10.9 6.8 63 3.3 E 11 13 6 7 1027.4 1027.4 0.0
30/09:00pm 13.9 11.1 7.0 63 3.3 E 11 13 6 7 1027.5 1027.5 0.0
30/08:30pm 14.7 12.3 7.0 60 3.8 ESE 9 13 5 7 1027.3 1027.3 0.0
30/08:00pm 14.7 12.7 7.0 60 3.7 ESE 7 11 4 6 1027.2 1027.2 0.0
30/07:30pm 14.6 12.9 7.4 62 3.6 ESE 6 7 3 4 1027.0 1027.0 0.0
30/07:00pm 14.5 12.7 7.3 62 3.5 SSE 6 7 3 4 1026.8 1026.8 0.0
30/06:30pm 14.6 12.6 7.2 61 3.6 ESE 7 9 4 5 1026.2 1026.2 0.0
30/06:00pm 14.5 12.1 7.1 61 3.6 S 9 11 5 6 1025.9 1025.9 0.0
30/05:30pm 14.7 12.9 7.0 60 3.8 SE 6 9 3 5 1025.5 1025.5 0.0
30/05:00pm 15.0 14.3 7.1 59 3.9 CALM 0 0 0 0 1025.3 1025.3 0.0
30/04:30pm 15.6 14.5 7.1 57 4.2 S 2 9 1 5 1025.0 1025.0 0.0
30/04:00pm 16.0 14.0 7.0 55 4.4 SE 7 13 4 7 1025.0 1025.0 0.0
30/03:30pm 16.2 13.8 6.9 54 4.6 SE 9 13 5 7 1024.9 1024.9 0.0
30/03:00pm 16.1 13.6 6.5 53 4.7 SE 9 15 5 8 1024.6 1024.6 0.0
30/02:30pm 16.4 14.0 7.1 54 4.6 SSE 9 15 5 8 1024.7 1024.7 0.0
30/02:00pm 16.4 13.3 7.1 54 4.6 SSE 13 17 7 9 1024.8 1024.8 0.0
30/01:30pm 16.2 14.1 6.6 53 4.7 SSE 7 13 4 7 1025.0 1025.0 0.0
30/01:00pm 16.4 14.0 7.1 54 4.6 SSE 9 17 5 9 1025.4 1025.4 0.0
30/12:30pm 16.6 13.9 7.5 55 4.6 ESE 11 17 6 9 1025.6 1025.6 0.0
30/12:00pm 16.1 12.7 6.0 51 4.9 ESE 13 20 7 11 1026.0 1026.0 0.0
30/11:30am 16.0 12.6 7.5 57 4.2 E 15 20 8 11 1026.5 1026.5 0.0
30/11:00am 16.0 12.7 8.0 59 4.0 ENE 15 20 8 11 1026.8 1026.8 0.0
30/10:30am 15.7 12.3 7.5 58 4.1 ENE 15 20 8 11 1027.0 1027.0 0.0
30/10:00am 15.4 11.9 8.6 64 3.4 ENE 17 20 9 11 1027.0 1027.0 0.0
30/09:30am 15.0 11.8 8.5 65 3.3 ENE 15 20 8 11 1026.9 1026.9 0.0
30/09:00am 14.4 11.7 8.8 69 2.8 ENE 13 20 7 11 1026.7 1026.7 0.2
30/08:30am 13.7 10.6 8.7 72 2.5 E 15 19 8 10 1026.4 1026.4 0.2
30/08:00am 12.7 9.5 8.4 75 2.1 E 15 17 8 9 1026.1 1026.1 0.2
30/07:30am 12.4 9.1 8.1 75 2.1 E 15 17 8 9 1025.9 1025.9 0.2
30/07:00am 12.0 8.7 8.1 77 1.9 E 15 19 8 10 1025.7 1025.7 0.2
30/06:30am 11.9 8.9 7.8 76 2.0 E 13 17 7 9 1025.4 1025.4 0.2
30/06:00am 12.4 9.1 7.9 74 2.2 E 15 19 8 10 1025.2 1025.2 0.2
30/05:30am 12.9 9.5 7.6 70 2.6 E 15 20 8 11 1025.0 1025.0 0.2
30/05:00am 12.7 9.7 7.6 71 2.5 E 13 17 7 9 1025.0 1025.0 0.2
30/04:30am 13.1 10.2 8.0 71 2.5 ESE 13 19 7 10 1024.7 1024.7 0.2
30/04:00am 13.4 10.5 8.3 71 2.5 ESE 13 15 7 8 1024.5 1024.5 0.2
30/03:30am 13.6 10.5 8.7 72 2.5 ESE 15 19 8 10 1024.3 1024.3 0.2
30/03:00am 13.5 10.9 9.2 75 2.2 ESE 13 17 7 9 1024.3 1024.3 0.2
30/02:30am 13.8 11.2 9.5 75 2.2 ESE 13 19 7 10 1024.4 1024.4 0.2
30/02:00am 14.0 11.9 9.8 76 2.2 ESE 11 15 6 8 1024.4 1024.4 0.2
30/01:30am 14.0 11.9 9.6 75 2.3 ESE 11 15 6 8 1024.3 1024.3 0.2
30/01:00am 14.3 11.7 9.5 73 2.5 ESE 13 17 7 9 1024.1 1024.1 0.2
30/12:30am 14.7 11.1 9.7 72 2.6 SE 19 26 10 14 1024.1 1024.1 0.2
30/12:00am 15.1 10.6 10.1 72 2.6 SE 24 30 13 16 1024.1 1024.1 0.2
 
Date/Time
WST
Temp
°C
App
Temp
°C
Dew
Point
°C
Rel
Hum
%
Delta-T
°C
Wind Press
QNH
hPa
Press
MSL
hPa
Rain since
9am
mm
Dir  Spd
km/h
Gust
km/h
Spd
kts
Gust
kts
29/11:30pm 14.7 12.3 9.9 73 2.5 ESE 13 19 7 10 1023.9 1023.9 0.2
29/11:00pm 15.0 12.3 10.4 74 2.4 SE 15 22 8 12 1023.9 1023.9 0.2
29/10:30pm 15.6 11.2 10.4 71 2.7 SE 24 30 13 16 1023.7 1023.7 0.0
29/10:00pm 15.4 12.2 10.0 70 2.8 SE 17 20 9 11 1023.5 1023.5 0.0
29/09:30pm 15.9 12.0 9.3 65 3.4 SSE 20 28 11 15 1023.3 1023.3 0.0
29/09:00pm 15.6 11.7 9.5 67 3.1 SSE 20 28 11 15 1023.1 1023.1 0.0
29/08:30pm 15.9 11.7 9.8 67 3.2 SSE 22 32 12 17 1022.7 1022.7 0.0
29/08:00pm 15.5 10.9 9.6 68 3.1 S 24 28 13 15 1022.6 1022.6 0.0
29/07:30pm 15.6 10.3 9.9 69 3.0 S 28 33 15 18 1022.2 1022.2 0.0
29/07:00pm 15.6 10.4 10.4 71 2.7 S 28 35 15 19 1021.8 1021.8 0.0
29/06:51pm 15.5 10.5 10.9 74 2.5 S 28 33 15 18 1021.8 1021.8 0.0
29/06:30pm 14.6 14.2 11.0 79 1.9 SW 4 15 2 8 1021.8 1021.8 0.0
29/06:00pm 14.1 11.1 10.7 80 1.8 SSE 17 32 9 17 1021.4 1021.4 0.0

Latest Capital City Observations: Canberra | Sydney | Melbourne | Brisbane | Adelaide | Perth | Hobart | Darwin

Other Formats:

Comma delimited format used in spreadsheet applications
http://www.bom.gov.au/fwo/IDW60901/IDW60901.94602.axf

JavaScript Object Notation format (JSON) in row-major order
http://www.bom.gov.au/fwo/IDW60901/IDW60901.94602.json